sensor_id;sensor_type;location;lat;lon;timestamp;P1;durP1;ratioP1;P2;durP2;ratioP2
21424;SDS011;10873;51.132;16.848;2023-08-12T00:00:18;5.15;;;3.35;;
21424;SDS011;10873;51.132;16.848;2023-08-12T00:03:05;5.93;;;3.50;;
21424;SDS011;10873;51.132;16.848;2023-08-12T00:05:31;5.38;;;3.58;;
21424;SDS011;10873;51.132;16.848;2023-08-12T00:07:57;5.47;;;3.67;;
21424;SDS011;10873;51.132;16.848;2023-08-12T00:10:24;4.60;;;3.47;;
21424;SDS011;10873;51.132;16.848;2023-08-12T00:12:50;4.15;;;3.20;;
21424;SDS011;10873;51.132;16.848;2023-08-12T00:15:16;6.72;;;3.70;;
21424;SDS011;10873;51.132;16.848;2023-08-12T00:17:42;5.25;;;3.53;;
21424;SDS011;10873;51.132;16.848;2023-08-12T00:20:08;5.38;;;3.88;;
21424;SDS011;10873;51.132;16.848;2023-08-12T00:22:36;5.75;;;3.80;;
21424;SDS011;10873;51.132;16.848;2023-08-12T00:25:02;4.32;;;3.10;;
21424;SDS011;10873;51.132;16.848;2023-08-12T00:27:31;6.80;;;3.30;;
21424;SDS011;10873;51.132;16.848;2023-08-12T00:29:57;5.05;;;3.40;;
21424;SDS011;10873;51.132;16.848;2023-08-12T00:32:23;5.30;;;3.33;;
21424;SDS011;10873;51.132;16.848;2023-08-12T00:34:49;4.25;;;3.35;;
21424;SDS011;10873;51.132;16.848;2023-08-12T00:37:15;4.18;;;3.00;;
21424;SDS011;10873;51.132;16.848;2023-08-12T00:39:41;4.85;;;3.88;;
21424;SDS011;10873;51.132;16.848;2023-08-12T00:42:07;5.47;;;3.53;;
21424;SDS011;10873;51.132;16.848;2023-08-12T00:44:34;5.93;;;3.50;;
21424;SDS011;10873;51.132;16.848;2023-08-12T00:47:00;6.68;;;3.40;;
21424;SDS011;10873;51.132;16.848;2023-08-12T00:49:26;5.13;;;3.03;;
21424;SDS011;10873;51.132;16.848;2023-08-12T00:51:53;4.70;;;3.28;;
21424;SDS011;10873;51.132;16.848;2023-08-12T00:54:20;6.53;;;3.30;;
21424;SDS011;10873;51.132;16.848;2023-08-12T00:56:48;5.57;;;3.50;;
21424;SDS011;10873;51.132;16.848;2023-08-12T00:59:14;3.88;;;3.33;;
21424;SDS011;10873;51.132;16.848;2023-08-12T01:01:44;5.50;;;3.47;;
21424;SDS011;10873;51.132;16.848;2023-08-12T01:04:10;5.93;;;3.67;;
21424;SDS011;10873;51.132;16.848;2023-08-12T01:06:36;8.35;;;3.33;;
21424;SDS011;10873;51.132;16.848;2023-08-12T01:09:05;4.93;;;3.50;;
21424;SDS011;10873;51.132;16.848;2023-08-12T01:11:34;4.32;;;3.40;;
21424;SDS011;10873;51.132;16.848;2023-08-12T01:14:06;4.93;;;3.53;;
21424;SDS011;10873;51.132;16.848;2023-08-12T01:16:35;3.78;;;2.95;;
21424;SDS011;10873;51.132;16.848;2023-08-12T01:19:09;5.55;;;3.58;;
21424;SDS011;10873;51.132;16.848;2023-08-12T01:21:36;5.18;;;3.28;;
21424;SDS011;10873;51.132;16.848;2023-08-12T01:24:10;7.10;;;3.50;;
21424;SDS011;10873;51.132;16.848;2023-08-12T01:26:36;5.68;;;3.53;;
21424;SDS011;10873;51.132;16.848;2023-08-12T01:29:02;4.25;;;3.20;;
21424;SDS011;10873;51.132;16.848;2023-08-12T01:31:30;4.28;;;3.28;;
21424;SDS011;10873;51.132;16.848;2023-08-12T01:34:01;4.18;;;3.25;;
21424;SDS011;10873;51.132;16.848;2023-08-12T01:36:37;5.57;;;3.72;;
21424;SDS011;10873;51.132;16.848;2023-08-12T01:39:06;6.45;;;3.20;;
21424;SDS011;10873;51.132;16.848;2023-08-12T01:41:36;4.88;;;3.75;;
21424;SDS011;10873;51.132;16.848;2023-08-12T01:44:03;7.68;;;3.75;;
21424;SDS011;10873;51.132;16.848;2023-08-12T01:46:30;5.32;;;3.47;;
21424;SDS011;10873;51.132;16.848;2023-08-12T01:48:56;4.63;;;3.50;;
21424;SDS011;10873;51.132;16.848;2023-08-12T01:51:22;4.15;;;3.28;;
21424;SDS011;10873;51.132;16.848;2023-08-12T01:53:48;4.70;;;3.45;;
21424;SDS011;10873;51.132;16.848;2023-08-12T01:56:16;4.72;;;3.50;;
21424;SDS011;10873;51.132;16.848;2023-08-12T01:58:42;5.55;;;3.63;;
21424;SDS011;10873;51.132;16.848;2023-08-12T02:01:08;5.00;;;3.35;;
21424;SDS011;10873;51.132;16.848;2023-08-12T02:03:34;4.75;;;3.25;;
21424;SDS011;10873;51.132;16.848;2023-08-12T02:06:00;4.10;;;3.22;;
21424;SDS011;10873;51.132;16.848;2023-08-12T02:08:26;4.20;;;3.22;;
21424;SDS011;10873;51.132;16.848;2023-08-12T02:10:52;3.78;;;2.97;;
21424;SDS011;10873;51.132;16.848;2023-08-12T02:13:19;4.45;;;3.45;;
21424;SDS011;10873;51.132;16.848;2023-08-12T02:15:45;5.85;;;3.72;;
21424;SDS011;10873;51.132;16.848;2023-08-12T02:18:11;5.00;;;3.40;;
21424;SDS011;10873;51.132;16.848;2023-08-12T02:20:37;4.90;;;3.53;;
21424;SDS011;10873;51.132;16.848;2023-08-12T02:23:05;6.50;;;3.65;;
21424;SDS011;10873;51.132;16.848;2023-08-12T02:25:31;4.60;;;3.38;;
21424;SDS011;10873;51.132;16.848;2023-08-12T02:27:57;4.85;;;3.67;;
21424;SDS011;10873;51.132;16.848;2023-08-12T02:30:25;5.03;;;3.40;;
21424;SDS011;10873;51.132;16.848;2023-08-12T02:32:51;5.15;;;3.40;;
21424;SDS011;10873;51.132;16.848;2023-08-12T02:35:17;4.70;;;3.47;;
21424;SDS011;10873;51.132;16.848;2023-08-12T02:37:43;5.65;;;3.33;;
21424;SDS011;10873;51.132;16.848;2023-08-12T02:40:09;5.30;;;3.17;;
21424;SDS011;10873;51.132;16.848;2023-08-12T02:42:36;4.47;;;3.38;;
21424;SDS011;10873;51.132;16.848;2023-08-12T02:45:02;4.72;;;3.53;;
21424;SDS011;10873;51.132;16.848;2023-08-12T02:47:30;3.67;;;3.35;;
21424;SDS011;10873;51.132;16.848;2023-08-12T02:49:56;4.38;;;3.13;;
21424;SDS011;10873;51.132;16.848;2023-08-12T02:52:22;4.82;;;3.20;;
21424;SDS011;10873;51.132;16.848;2023-08-12T02:54:48;5.43;;;3.50;;
21424;SDS011;10873;51.132;16.848;2023-08-12T02:57:14;3.88;;;3.13;;
21424;SDS011;10873;51.132;16.848;2023-08-12T02:59:40;4.72;;;3.20;;
21424;SDS011;10873;51.132;16.848;2023-08-12T03:02:06;5.43;;;3.10;;
21424;SDS011;10873;51.132;16.848;2023-08-12T03:04:34;5.78;;;3.45;;
21424;SDS011;10873;51.132;16.848;2023-08-12T03:07:00;4.15;;;3.33;;
21424;SDS011;10873;51.132;16.848;2023-08-12T03:09:26;6.03;;;3.30;;
21424;SDS011;10873;51.132;16.848;2023-08-12T03:11:52;6.30;;;3.50;;
21424;SDS011;10873;51.132;16.848;2023-08-12T03:14:18;5.05;;;3.28;;
21424;SDS011;10873;51.132;16.848;2023-08-12T03:16:44;6.22;;;3.80;;
21424;SDS011;10873;51.132;16.848;2023-08-12T03:19:10;4.15;;;3.25;;
21424;SDS011;10873;51.132;16.848;2023-08-12T03:21:37;3.90;;;3.22;;
21424;SDS011;10873;51.132;16.848;2023-08-12T03:24:04;4.57;;;3.47;;
21424;SDS011;10873;51.132;16.848;2023-08-12T03:26:30;5.95;;;3.72;;
21424;SDS011;10873;51.132;16.848;2023-08-12T03:28:56;4.07;;;3.28;;
21424;SDS011;10873;51.132;16.848;2023-08-12T03:31:22;5.10;;;3.42;;
21424;SDS011;10873;51.132;16.848;2023-08-12T03:33:48;4.85;;;3.35;;
21424;SDS011;10873;51.132;16.848;2023-08-12T03:36:14;6.78;;;3.33;;
21424;SDS011;10873;51.132;16.848;2023-08-12T03:38:42;4.80;;;3.53;;
21424;SDS011;10873;51.132;16.848;2023-08-12T03:41:07;5.45;;;3.75;;
21424;SDS011;10873;51.132;16.848;2023-08-12T03:43:34;4.82;;;3.35;;
21424;SDS011;10873;51.132;16.848;2023-08-12T03:46:00;4.20;;;3.38;;
21424;SDS011;10873;51.132;16.848;2023-08-12T03:48:26;4.78;;;3.25;;
21424;SDS011;10873;51.132;16.848;2023-08-12T03:50:51;4.38;;;3.30;;
21424;SDS011;10873;51.132;16.848;2023-08-12T03:53:18;5.25;;;3.33;;
21424;SDS011;10873;51.132;16.848;2023-08-12T03:55:45;4.80;;;3.60;;
21424;SDS011;10873;51.132;16.848;2023-08-12T03:58:11;4.43;;;3.33;;
21424;SDS011;10873;51.132;16.848;2023-08-12T04:00:40;5.18;;;3.70;;
21424;SDS011;10873;51.132;16.848;2023-08-12T04:03:06;5.07;;;3.60;;
21424;SDS011;10873;51.132;16.848;2023-08-12T04:05:33;5.47;;;3.30;;
21424;SDS011;10873;51.132;16.848;2023-08-12T04:08:00;3.58;;;3.15;;
21424;SDS011;10873;51.132;16.848;2023-08-12T04:10:26;5.00;;;3.58;;
21424;SDS011;10873;51.132;16.848;2023-08-12T04:12:53;3.75;;;3.05;;
21424;SDS011;10873;51.132;16.848;2023-08-12T04:15:19;5.78;;;3.50;;
21424;SDS011;10873;51.132;16.848;2023-08-12T04:17:46;4.70;;;3.47;;
21424;SDS011;10873;51.132;16.848;2023-08-12T04:20:12;5.05;;;3.38;;
21424;SDS011;10873;51.132;16.848;2023-08-12T04:22:38;6.75;;;3.50;;
21424;SDS011;10873;51.132;16.848;2023-08-12T04:25:04;3.63;;;3.15;;
21424;SDS011;10873;51.132;16.848;2023-08-12T04:27:31;7.72;;;3.00;;
21424;SDS011;10873;51.132;16.848;2023-08-12T04:29:58;4.80;;;3.33;;
21424;SDS011;10873;51.132;16.848;2023-08-12T04:32:25;3.63;;;3.10;;
21424;SDS011;10873;51.132;16.848;2023-08-12T04:34:50;3.47;;;2.88;;
21424;SDS011;10873;51.132;16.848;2023-08-12T04:37:17;4.47;;;3.35;;
21424;SDS011;10873;51.132;16.848;2023-08-12T04:39:43;4.15;;;3.38;;
21424;SDS011;10873;51.132;16.848;2023-08-12T04:42:09;3.80;;;3.30;;
21424;SDS011;10873;51.132;16.848;2023-08-12T04:44:35;4.40;;;3.47;;
21424;SDS011;10873;51.132;16.848;2023-08-12T04:47:02;5.10;;;3.38;;
21424;SDS011;10873;51.132;16.848;2023-08-12T04:49:29;5.35;;;3.40;;
21424;SDS011;10873;51.132;16.848;2023-08-12T04:51:55;3.92;;;3.22;;
21424;SDS011;10873;51.132;16.848;2023-08-12T04:54:21;7.60;;;3.67;;
21424;SDS011;10873;51.132;16.848;2023-08-12T04:56:48;5.35;;;3.75;;
21424;SDS011;10873;51.132;16.848;2023-08-12T04:59:14;5.07;;;3.33;;
21424;SDS011;10873;51.132;16.848;2023-08-12T05:01:40;10.18;;;3.85;;
21424;SDS011;10873;51.132;16.848;2023-08-12T05:04:07;4.85;;;3.45;;
21424;SDS011;10873;51.132;16.848;2023-08-12T05:06:33;4.45;;;3.42;;
21424;SDS011;10873;51.132;16.848;2023-08-12T05:08:59;6.68;;;3.22;;
21424;SDS011;10873;51.132;16.848;2023-08-12T05:11:25;6.18;;;3.55;;
21424;SDS011;10873;51.132;16.848;2023-08-12T05:13:51;7.80;;;3.40;;
21424;SDS011;10873;51.132;16.848;2023-08-12T05:16:17;8.48;;;3.83;;
21424;SDS011;10873;51.132;16.848;2023-08-12T05:18:43;6.82;;;3.67;;
21424;SDS011;10873;51.132;16.848;2023-08-12T05:21:11;5.65;;;3.10;;
21424;SDS011;10873;51.132;16.848;2023-08-12T05:23:36;6.47;;;3.53;;
21424;SDS011;10873;51.132;16.848;2023-08-12T05:26:03;4.80;;;3.38;;
21424;SDS011;10873;51.132;16.848;2023-08-12T05:28:28;8.55;;;3.63;;
21424;SDS011;10873;51.132;16.848;2023-08-12T05:30:55;8.02;;;3.63;;
21424;SDS011;10873;51.132;16.848;2023-08-12T05:33:21;8.35;;;3.60;;
21424;SDS011;10873;51.132;16.848;2023-08-12T05:35:47;4.35;;;3.42;;
21424;SDS011;10873;51.132;16.848;2023-08-12T05:38:14;4.15;;;3.30;;
21424;SDS011;10873;51.132;16.848;2023-08-12T05:40:41;4.10;;;3.50;;
21424;SDS011;10873;51.132;16.848;2023-08-12T05:43:06;4.22;;;3.42;;
21424;SDS011;10873;51.132;16.848;2023-08-12T05:45:33;4.30;;;3.40;;
21424;SDS011;10873;51.132;16.848;2023-08-12T05:47:59;4.55;;;3.35;;
21424;SDS011;10873;51.132;16.848;2023-08-12T05:50:25;4.15;;;3.15;;
21424;SDS011;10873;51.132;16.848;2023-08-12T05:52:51;5.57;;;3.17;;
21424;SDS011;10873;51.132;16.848;2023-08-12T05:55:18;5.53;;;3.88;;
21424;SDS011;10873;51.132;16.848;2023-08-12T05:57:44;5.43;;;3.35;;
21424;SDS011;10873;51.132;16.848;2023-08-12T06:00:11;6.88;;;3.38;;
21424;SDS011;10873;51.132;16.848;2023-08-12T06:02:37;7.30;;;3.10;;
21424;SDS011;10873;51.132;16.848;2023-08-12T06:05:04;6.68;;;3.72;;
21424;SDS011;10873;51.132;16.848;2023-08-12T06:07:30;8.25;;;3.90;;
21424;SDS011;10873;51.132;16.848;2023-08-12T06:09:57;7.63;;;3.95;;
21424;SDS011;10873;51.132;16.848;2023-08-12T06:12:24;6.75;;;3.42;;
21424;SDS011;10873;51.132;16.848;2023-08-12T06:14:50;6.97;;;3.47;;
21424;SDS011;10873;51.132;16.848;2023-08-12T06:17:16;9.45;;;3.50;;
21424;SDS011;10873;51.132;16.848;2023-08-12T06:19:42;8.18;;;3.55;;
21424;SDS011;10873;51.132;16.848;2023-08-12T06:22:08;8.05;;;4.10;;
21424;SDS011;10873;51.132;16.848;2023-08-12T06:24:34;5.97;;;3.97;;
21424;SDS011;10873;51.132;16.848;2023-08-12T06:27:00;6.03;;;3.53;;
21424;SDS011;10873;51.132;16.848;2023-08-12T06:29:27;6.93;;;4.25;;
21424;SDS011;10873;51.132;16.848;2023-08-12T06:31:54;7.18;;;3.40;;
21424;SDS011;10873;51.132;16.848;2023-08-12T06:34:20;6.90;;;3.80;;
21424;SDS011;10873;51.132;16.848;2023-08-12T06:36:46;4.75;;;3.30;;
21424;SDS011;10873;51.132;16.848;2023-08-12T06:39:12;15.18;;;3.63;;
21424;SDS011;10873;51.132;16.848;2023-08-12T06:41:38;4.57;;;3.78;;
21424;SDS011;10873;51.132;16.848;2023-08-12T06:44:05;10.65;;;3.88;;
21424;SDS011;10873;51.132;16.848;2023-08-12T06:46:33;9.27;;;3.83;;
21424;SDS011;10873;51.132;16.848;2023-08-12T06:48:59;17.77;;;4.30;;
21424;SDS011;10873;51.132;16.848;2023-08-12T06:51:25;17.98;;;4.60;;
21424;SDS011;10873;51.132;16.848;2023-08-12T06:53:52;19.90;;;4.75;;
21424;SDS011;10873;51.132;16.848;2023-08-12T06:56:18;15.90;;;4.30;;
21424;SDS011;10873;51.132;16.848;2023-08-12T06:58:44;9.43;;;3.92;;
21424;SDS011;10873;51.132;16.848;2023-08-12T07:01:11;12.52;;;3.90;;
21424;SDS011;10873;51.132;16.848;2023-08-12T07:03:47;9.02;;;3.42;;
21424;SDS011;10873;51.132;16.848;2023-08-12T07:06:13;7.85;;;3.50;;
21424;SDS011;10873;51.132;16.848;2023-08-12T07:08:40;13.07;;;4.00;;
21424;SDS011;10873;51.132;16.848;2023-08-12T07:11:06;8.82;;;3.50;;
21424;SDS011;10873;51.132;16.848;2023-08-12T07:13:37;6.63;;;3.80;;
21424;SDS011;10873;51.132;16.848;2023-08-12T07:16:03;7.80;;;3.15;;
21424;SDS011;10873;51.132;16.848;2023-08-12T07:18:30;5.55;;;3.13;;
21424;SDS011;10873;51.132;16.848;2023-08-12T07:20:58;6.80;;;3.17;;
21424;SDS011;10873;51.132;16.848;2023-08-12T07:23:25;6.63;;;3.78;;
21424;SDS011;10873;51.132;16.848;2023-08-12T07:25:51;5.90;;;3.35;;
21424;SDS011;10873;51.132;16.848;2023-08-12T07:28:17;8.27;;;3.65;;
21424;SDS011;10873;51.132;16.848;2023-08-12T07:30:44;10.15;;;3.60;;
21424;SDS011;10873;51.132;16.848;2023-08-12T07:33:10;11.48;;;3.55;;
21424;SDS011;10873;51.132;16.848;2023-08-12T07:35:36;6.45;;;3.38;;
21424;SDS011;10873;51.132;16.848;2023-08-12T07:38:04;7.93;;;3.08;;
21424;SDS011;10873;51.132;16.848;2023-08-12T07:40:30;5.88;;;2.90;;
21424;SDS011;10873;51.132;16.848;2023-08-12T07:42:59;5.45;;;3.10;;
21424;SDS011;10873;51.132;16.848;2023-08-12T07:45:25;6.22;;;2.70;;
21424;SDS011;10873;51.132;16.848;2023-08-12T07:47:54;5.70;;;3.15;;
21424;SDS011;10873;51.132;16.848;2023-08-12T07:50:20;8.60;;;2.75;;
21424;SDS011;10873;51.132;16.848;2023-08-12T07:52:47;6.38;;;3.03;;
21424;SDS011;10873;51.132;16.848;2023-08-12T07:55:14;6.68;;;2.97;;
21424;SDS011;10873;51.132;16.848;2023-08-12T07:57:41;5.93;;;2.65;;
21424;SDS011;10873;51.132;16.848;2023-08-12T08:00:07;5.65;;;2.70;;
21424;SDS011;10873;51.132;16.848;2023-08-12T08:02:38;5.53;;;2.75;;
21424;SDS011;10873;51.132;16.848;2023-08-12T08:05:05;3.65;;;2.60;;
21424;SDS011;10873;51.132;16.848;2023-08-12T08:07:32;6.78;;;2.80;;
21424;SDS011;10873;51.132;16.848;2023-08-12T08:09:59;4.72;;;2.78;;
21424;SDS011;10873;51.132;16.848;2023-08-12T08:12:26;4.22;;;2.85;;
21424;SDS011;10873;51.132;16.848;2023-08-12T08:14:52;3.83;;;2.47;;
21424;SDS011;10873;51.132;16.848;2023-08-12T08:17:20;7.22;;;2.70;;
21424;SDS011;10873;51.132;16.848;2023-08-12T08:19:46;5.55;;;2.65;;
21424;SDS011;10873;51.132;16.848;2023-08-12T08:22:12;3.80;;;2.50;;
21424;SDS011;10873;51.132;16.848;2023-08-12T08:24:38;5.32;;;2.55;;
21424;SDS011;10873;51.132;16.848;2023-08-12T08:27:04;5.22;;;2.50;;
21424;SDS011;10873;51.132;16.848;2023-08-12T08:29:31;4.00;;;2.80;;
21424;SDS011;10873;51.132;16.848;2023-08-12T08:31:58;6.18;;;2.63;;
21424;SDS011;10873;51.132;16.848;2023-08-12T08:34:24;5.55;;;2.38;;
21424;SDS011;10873;51.132;16.848;2023-08-12T08:36:50;6.95;;;2.70;;
21424;SDS011;10873;51.132;16.848;2023-08-12T08:39:16;4.10;;;2.95;;
21424;SDS011;10873;51.132;16.848;2023-08-12T08:41:42;5.80;;;2.92;;
21424;SDS011;10873;51.132;16.848;2023-08-12T08:44:13;5.72;;;2.53;;
21424;SDS011;10873;51.132;16.848;2023-08-12T08:46:42;6.03;;;2.63;;
21424;SDS011;10873;51.132;16.848;2023-08-12T08:49:10;3.28;;;2.50;;
21424;SDS011;10873;51.132;16.848;2023-08-12T08:51:40;5.15;;;2.80;;
21424;SDS011;10873;51.132;16.848;2023-08-12T08:54:08;2.97;;;2.47;;
21424;SDS011;10873;51.132;16.848;2023-08-12T08:56:36;9.98;;;2.97;;
21424;SDS011;10873;51.132;16.848;2023-08-12T08:59:03;5.88;;;2.78;;
21424;SDS011;10873;51.132;16.848;2023-08-12T09:01:31;5.22;;;2.50;;
21424;SDS011;10873;51.132;16.848;2023-08-12T09:03:59;4.25;;;2.30;;
21424;SDS011;10873;51.132;16.848;2023-08-12T09:06:26;6.22;;;2.47;;
21424;SDS011;10873;51.132;16.848;2023-08-12T09:08:54;3.78;;;2.40;;
21424;SDS011;10873;51.132;16.848;2023-08-12T09:11:21;6.78;;;2.78;;
21424;SDS011;10873;51.132;16.848;2023-08-12T09:13:49;5.93;;;2.95;;
21424;SDS011;10873;51.132;16.848;2023-08-12T09:16:15;7.68;;;2.50;;
21424;SDS011;10873;51.132;16.848;2023-08-12T09:18:42;6.55;;;2.55;;
21424;SDS011;10873;51.132;16.848;2023-08-12T09:21:11;5.97;;;2.60;;
21424;SDS011;10873;51.132;16.848;2023-08-12T09:23:38;3.42;;;2.50;;
21424;SDS011;10873;51.132;16.848;2023-08-12T09:26:10;7.45;;;2.47;;
21424;SDS011;10873;51.132;16.848;2023-08-12T09:28:39;6.68;;;2.47;;
21424;SDS011;10873;51.132;16.848;2023-08-12T09:31:05;3.13;;;2.33;;
21424;SDS011;10873;51.132;16.848;2023-08-12T09:33:32;5.75;;;2.33;;
21424;SDS011;10873;51.132;16.848;2023-08-12T09:36:03;5.03;;;2.30;;
21424;SDS011;10873;51.132;16.848;2023-08-12T09:38:31;4.75;;;2.50;;
21424;SDS011;10873;51.132;16.848;2023-08-12T09:40:58;2.58;;;2.25;;
21424;SDS011;10873;51.132;16.848;2023-08-12T09:43:26;17.50;;;2.60;;
21424;SDS011;10873;51.132;16.848;2023-08-12T09:45:55;4.78;;;2.22;;
21424;SDS011;10873;51.132;16.848;2023-08-12T09:48:23;4.38;;;2.33;;
21424;SDS011;10873;51.132;16.848;2023-08-12T09:50:49;5.38;;;2.42;;
21424;SDS011;10873;51.132;16.848;2023-08-12T09:53:15;3.70;;;2.45;;
21424;SDS011;10873;51.132;16.848;2023-08-12T09:55:44;6.03;;;2.25;;
21424;SDS011;10873;51.132;16.848;2023-08-12T09:58:13;3.30;;;2.03;;
21424;SDS011;10873;51.132;16.848;2023-08-12T10:00:43;3.28;;;2.28;;
21424;SDS011;10873;51.132;16.848;2023-08-12T10:03:11;3.72;;;2.50;;
21424;SDS011;10873;51.132;16.848;2023-08-12T10:05:41;5.47;;;2.30;;
21424;SDS011;10873;51.132;16.848;2023-08-12T10:08:08;4.90;;;2.40;;
21424;SDS011;10873;51.132;16.848;2023-08-12T10:10:35;4.10;;;1.98;;
21424;SDS011;10873;51.132;16.848;2023-08-12T10:13:03;3.72;;;2.47;;
21424;SDS011;10873;51.132;16.848;2023-08-12T10:15:32;4.82;;;2.10;;
21424;SDS011;10873;51.132;16.848;2023-08-12T10:17:59;5.22;;;2.15;;
21424;SDS011;10873;51.132;16.848;2023-08-12T10:20:25;5.78;;;2.42;;
21424;SDS011;10873;51.132;16.848;2023-08-12T10:22:53;4.40;;;2.30;;
21424;SDS011;10873;51.132;16.848;2023-08-12T10:25:20;7.50;;;2.50;;
21424;SDS011;10873;51.132;16.848;2023-08-12T10:27:47;7.45;;;2.58;;
21424;SDS011;10873;51.132;16.848;2023-08-12T10:30:15;8.68;;;2.30;;
21424;SDS011;10873;51.132;16.848;2023-08-12T10:32:41;4.43;;;2.40;;
21424;SDS011;10873;51.132;16.848;2023-08-12T10:35:08;3.97;;;2.50;;
21424;SDS011;10873;51.132;16.848;2023-08-12T10:37:34;3.42;;;2.28;;
21424;SDS011;10873;51.132;16.848;2023-08-12T10:40:02;2.75;;;2.22;;
21424;SDS011;10873;51.132;16.848;2023-08-12T10:42:39;6.43;;;2.53;;
21424;SDS011;10873;51.132;16.848;2023-08-12T10:45:09;7.70;;;2.60;;
21424;SDS011;10873;51.132;16.848;2023-08-12T10:47:41;5.38;;;2.42;;
21424;SDS011;10873;51.132;16.848;2023-08-12T10:50:17;3.25;;;2.60;;
21424;SDS011;10873;51.132;16.848;2023-08-12T10:52:44;5.88;;;2.67;;
21424;SDS011;10873;51.132;16.848;2023-08-12T10:55:18;6.75;;;2.95;;
21424;SDS011;10873;51.132;16.848;2023-08-12T10:57:45;8.15;;;3.63;;
21424;SDS011;10873;51.132;16.848;2023-08-12T11:00:13;6.63;;;3.92;;
21424;SDS011;10873;51.132;16.848;2023-08-12T11:02:41;11.75;;;4.45;;
21424;SDS011;10873;51.132;16.848;2023-08-12T11:05:11;23.73;;;7.07;;
21424;SDS011;10873;51.132;16.848;2023-08-12T11:07:38;20.80;;;7.47;;
21424;SDS011;10873;51.132;16.848;2023-08-12T11:10:05;36.25;;;14.30;;
21424;SDS011;10873;51.132;16.848;2023-08-12T11:12:37;93.15;;;39.38;;
21424;SDS011;10873;51.132;16.848;2023-08-12T11:15:05;104.20;;;42.55;;
21424;SDS011;10873;51.132;16.848;2023-08-12T11:17:32;110.97;;;49.83;;
21424;SDS011;10873;51.132;16.848;2023-08-12T11:20:01;103.93;;;46.30;;
21424;SDS011;10873;51.132;16.848;2023-08-12T11:22:32;93.13;;;38.38;;
21424;SDS011;10873;51.132;16.848;2023-08-12T11:25:00;83.13;;;34.83;;
21424;SDS011;10873;51.132;16.848;2023-08-12T11:27:27;67.18;;;30.08;;
21424;SDS011;10873;51.132;16.848;2023-08-12T11:29:53;69.05;;;28.42;;
21424;SDS011;10873;51.132;16.848;2023-08-12T11:32:19;56.38;;;24.30;;
21424;SDS011;10873;51.132;16.848;2023-08-12T11:34:46;49.95;;;22.13;;
21424;SDS011;10873;51.132;16.848;2023-08-12T11:37:13;44.45;;;18.80;;
21424;SDS011;10873;51.132;16.848;2023-08-12T11:39:39;41.70;;;18.27;;
21424;SDS011;10873;51.132;16.848;2023-08-12T11:42:05;34.20;;;15.63;;
21424;SDS011;10873;51.132;16.848;2023-08-12T11:44:31;36.25;;;15.10;;
21424;SDS011;10873;51.132;16.848;2023-08-12T11:46:57;35.33;;;15.60;;
21424;SDS011;10873;51.132;16.848;2023-08-12T11:49:24;34.63;;;15.88;;
21424;SDS011;10873;51.132;16.848;2023-08-12T11:51:49;32.53;;;14.25;;
21424;SDS011;10873;51.132;16.848;2023-08-12T11:54:17;30.85;;;14.15;;
21424;SDS011;10873;51.132;16.848;2023-08-12T11:56:43;28.98;;;13.68;;
21424;SDS011;10873;51.132;16.848;2023-08-12T11:59:10;31.02;;;13.73;;
21424;SDS011;10873;51.132;16.848;2023-08-12T12:01:39;27.25;;;13.32;;
21424;SDS011;10873;51.132;16.848;2023-08-12T12:04:06;24.23;;;11.80;;
21424;SDS011;10873;51.132;16.848;2023-08-12T12:06:36;26.33;;;11.88;;
21424;SDS011;10873;51.132;16.848;2023-08-12T12:09:16;23.23;;;11.02;;
21424;SDS011;10873;51.132;16.848;2023-08-12T12:11:51;23.05;;;11.40;;
21424;SDS011;10873;51.132;16.848;2023-08-12T12:14:18;19.77;;;10.40;;
21424;SDS011;10873;51.132;16.848;2023-08-12T12:16:46;23.65;;;11.23;;
21424;SDS011;10873;51.132;16.848;2023-08-12T12:19:15;21.30;;;10.35;;
21424;SDS011;10873;51.132;16.848;2023-08-12T12:21:44;17.58;;;9.90;;
21424;SDS011;10873;51.132;16.848;2023-08-12T12:24:11;19.00;;;9.60;;
21424;SDS011;10873;51.132;16.848;2023-08-12T12:26:40;20.42;;;9.50;;
21424;SDS011;10873;51.132;16.848;2023-08-12T12:29:06;20.70;;;9.32;;
21424;SDS011;10873;51.132;16.848;2023-08-12T12:31:34;17.40;;;8.70;;
21424;SDS011;10873;51.132;16.848;2023-08-12T12:34:03;16.65;;;8.40;;
21424;SDS011;10873;51.132;16.848;2023-08-12T12:36:30;13.65;;;8.45;;
21424;SDS011;10873;51.132;16.848;2023-08-12T12:38:56;13.23;;;7.70;;
21424;SDS011;10873;51.132;16.848;2023-08-12T12:41:23;14.85;;;8.10;;
21424;SDS011;10873;51.132;16.848;2023-08-12T12:43:51;14.80;;;6.70;;
21424;SDS011;10873;51.132;16.848;2023-08-12T12:46:18;13.23;;;7.10;;
21424;SDS011;10873;51.132;16.848;2023-08-12T12:48:45;13.80;;;7.25;;
21424;SDS011;10873;51.132;16.848;2023-08-12T12:51:12;13.90;;;7.57;;
21424;SDS011;10873;51.132;16.848;2023-08-12T12:53:41;10.82;;;6.47;;
21424;SDS011;10873;51.132;16.848;2023-08-12T12:56:07;12.60;;;6.50;;
21424;SDS011;10873;51.132;16.848;2023-08-12T12:58:35;10.07;;;5.97;;
21424;SDS011;10873;51.132;16.848;2023-08-12T13:01:04;11.60;;;6.38;;
21424;SDS011;10873;51.132;16.848;2023-08-12T13:03:35;11.25;;;6.28;;
21424;SDS011;10873;51.132;16.848;2023-08-12T13:06:01;9.77;;;6.18;;
21424;SDS011;10873;51.132;16.848;2023-08-12T13:08:28;9.82;;;5.95;;
21424;SDS011;10873;51.132;16.848;2023-08-12T13:10:56;11.45;;;6.47;;
21424;SDS011;10873;51.132;16.848;2023-08-12T13:13:23;9.95;;;5.82;;
21424;SDS011;10873;51.132;16.848;2023-08-12T13:15:50;9.48;;;5.63;;
21424;SDS011;10873;51.132;16.848;2023-08-12T13:18:18;8.07;;;4.97;;
21424;SDS011;10873;51.132;16.848;2023-08-12T13:20:45;7.25;;;5.07;;
21424;SDS011;10873;51.132;16.848;2023-08-12T13:23:11;7.20;;;5.05;;
21424;SDS011;10873;51.132;16.848;2023-08-12T13:25:37;9.45;;;5.03;;
21424;SDS011;10873;51.132;16.848;2023-08-12T13:28:04;7.43;;;5.18;;
21424;SDS011;10873;51.132;16.848;2023-08-12T13:30:31;10.45;;;5.60;;
21424;SDS011;10873;51.132;16.848;2023-08-12T13:33:00;11.38;;;5.05;;
21424;SDS011;10873;51.132;16.848;2023-08-12T13:35:28;10.25;;;5.40;;
21424;SDS011;10873;51.132;16.848;2023-08-12T13:37:54;8.85;;;5.35;;
21424;SDS011;10873;51.132;16.848;2023-08-12T13:40:21;9.77;;;5.18;;
21424;SDS011;10873;51.132;16.848;2023-08-12T13:42:48;7.55;;;5.05;;
21424;SDS011;10873;51.132;16.848;2023-08-12T13:45:17;8.85;;;4.82;;
21424;SDS011;10873;51.132;16.848;2023-08-12T13:47:43;9.80;;;4.75;;
21424;SDS011;10873;51.132;16.848;2023-08-12T13:50:21;9.23;;;4.82;;
21424;SDS011;10873;51.132;16.848;2023-08-12T13:53:01;8.48;;;4.38;;
21424;SDS011;10873;51.132;16.848;2023-08-12T13:55:31;9.07;;;4.82;;
21424;SDS011;10873;51.132;16.848;2023-08-12T13:58:06;8.00;;;4.57;;
21424;SDS011;10873;51.132;16.848;2023-08-12T14:00:33;7.68;;;4.43;;
21424;SDS011;10873;51.132;16.848;2023-08-12T14:03:01;7.20;;;4.63;;
21424;SDS011;10873;51.132;16.848;2023-08-12T14:05:27;8.85;;;4.70;;
21424;SDS011;10873;51.132;16.848;2023-08-12T14:07:56;9.57;;;4.30;;
21424;SDS011;10873;51.132;16.848;2023-08-12T14:10:22;8.15;;;4.90;;
21424;SDS011;10873;51.132;16.848;2023-08-12T14:12:48;9.18;;;4.63;;
21424;SDS011;10873;51.132;16.848;2023-08-12T14:15:17;10.02;;;4.65;;
21424;SDS011;10873;51.132;16.848;2023-08-12T14:17:43;8.32;;;4.80;;
21424;SDS011;10873;51.132;16.848;2023-08-12T14:20:09;7.20;;;4.75;;
21424;SDS011;10873;51.132;16.848;2023-08-12T14:22:36;7.68;;;3.97;;
21424;SDS011;10873;51.132;16.848;2023-08-12T14:25:06;8.07;;;4.50;;
21424;SDS011;10873;51.132;16.848;2023-08-12T14:27:36;8.30;;;4.53;;
21424;SDS011;10873;51.132;16.848;2023-08-12T14:30:03;8.57;;;4.65;;